This is the latest recevied weather packets stored in our database for station/object KD2DXJ. If no packets are shown the sender has not sent any weather packets the latest 10 day(s).
| Time | Temp. | Humidity | Pressure | Rain* | Wind** | Luminosity | Snow |
|---|---|---|---|---|---|---|---|
| 1777484026 | 15° C | 76% | 1009.6 hPa | 0 mm | - | 161 W/m² | - |
| 1777483723 | 14.44° C | 77% | 1009.5 hPa | 0 mm | - | 141 W/m² | - |
| 1777483419 | 14.44° C | 77% | 1009.7 hPa | 0 mm | - | 95 W/m² | - |
| 1777483119 | 14.44° C | 77% | 1009.7 hPa | 0 mm | - | 49 W/m² | - |
| 1777482817 | 15° C | 76% | 1009.6 hPa | 0 mm | - | 62 W/m² | - |
| 1777482512 | 15° C | 76% | 1009.7 hPa | 0 mm | - | 107 W/m² | - |
| 1777482210 | 15° C | 75% | 1009.6 hPa | 0 mm | - | 143 W/m² | - |
| 1777481907 | 16.11° C | 73% | 1009.7 hPa | 0 mm | - | 104 W/m² | - |
| 1777481605 | 16.11° C | 73% | 1009.7 hPa | 0 mm | - | 121 W/m² | - |
| 1777481301 | 16.11° C | 72% | 1009.6 hPa | 0 mm | - | 186 W/m² | - |
| 1777480998 | 16.11° C | 71% | 1010.2 hPa | 0 mm | - | 154 W/m² | - |
| 1777480694 | 16.67° C | 70% | 1009.9 hPa | 0 mm | - | 150 W/m² | - |
| 1777480391 | 16.67° C | 69% | 1009.9 hPa | 0 mm | - | 121 W/m² | - |
| 1777480087 | 16.67° C | 71% | 1009.7 hPa | 0 mm | - | 170 W/m² | - |
| 1777479783 | 16.11° C | 74% | 1009.8 hPa | 0 mm | - | 211 W/m² | - |
| 1777479481 | 16.11° C | 71% | 1009.9 hPa | 0 mm | - | 195 W/m² | - |
| 1777479177 | 15.56° C | 72% | 1010.2 hPa | 0 mm | - | 206 W/m² | - |
| 1777478875 | 15.56° C | 74% | 1010.4 hPa | 0 mm | - | 194 W/m² | - |
| 1777478570 | 16.11° C | 71% | 1010.4 hPa | 0 mm | - | 201 W/m² | - |
| 1777478268 | 16.67° C | 71% | 1010.4 hPa | 0 mm | - | 201 W/m² | - |
| 1777477964 | 16.11° C | 71% | 1010.4 hPa | 0 mm | - | 268 W/m² | - |
| 1777477660 | 16.67° C | 68% | 1010.4 hPa | 0 mm | - | 262 W/m² | - |
| 1777477357 | 16.67° C | 69% | 1010.5 hPa | 0 mm | - | 387 W/m² | - |
| 1777477053 | 15.56° C | 73% | 1010.6 hPa | 0 mm | - | 241 W/m² | - |
| 1777476751 | 15.56° C | 72% | 1010.8 hPa | 0 mm | - | 153 W/m² | - |
* Rain latest hour (hover to see other rain measurements)
** Current wind speed in m/s (hover to see current wind gust speed)